Date,TemperatureHighF,TemperatureAvgF,TemperatureLowF,DewpointHighF,DewpointAvgF,DewpointLowF,HumidityHigh,HumidityAvg,HumidityLow,PressureMaxIn,PressureMinIn,WindSpeedMaxMPH,WindSpeedAvgMPH,GustSpeedMaxMPH,PrecipitationSumIn
2013-3-14,31.1,30.8,30.8,28.7,28.5,28.4,91,91,91,0.00,40.00,7,5,9,0.20
2013-3-15,31.6,29.9,28.2,28.2,27.0,25.4,91,89,86,0.00,40.00,6,-1,9,0.00
2013-3-16,42.4,42.3,42.3,28.3,28.2,28.1,57,57,57,29.54,29.54,12,8,17,0.01
2013-3-17,49.6,43.5,39.7,41.7,38.8,35.6,95,84,69,29.51,29.24,14,7,21,0.09
2013-3-18,49.1,43.2,38.0,41.7,39.0,36.4,96,86,72,29.30,29.24,16,5,26,0.05
2013-3-19,44.5,39.8,34.8,40.9,37.3,33.2,96,91,84,29.50,29.31,7,0,10,0.03
2013-3-25,53.1,36.6,30.0,-99.9,-99.9,-99.9,0,0,100,31.01,30.53,1,-3,1,0.00
2013-3-26,70.0,49.3,30.0,-99.9,-99.9,-99.9,0,0,100,31.01,29.24,15,4,18,0.20
2013-3-27,70.0,43.3,30.0,22.4,-81.3,-99.9,61,9,50,31.01,29.60,10,0,12,0.20
2013-3-28,42.8,34.0,28.8,27.9,24.2,20.1,84,67,52,29.84,29.78,10,6,18,0.00
2013-3-29,41.0,33.9,28.0,30.8,28.2,25.7,95,80,59,29.83,29.76,6,2,11,0.00
2013-3-30,41.7,34.8,29.8,32.0,29.9,27.9,100,82,60,29.89,29.75,10,4,18,0.00
2013-3-31,41.5,35.8,29.6,31.4,28.8,26.3,91,76,59,29.94,29.89,8,4,16,0.00
2013-4-1,47.1,38.3,29.9,29.3,26.5,22.6,88,65,40,29.92,29.82,11,6,22,0.00
2013-4-2,49.1,39.3,30.6,29.0,23.3,17.7,75,55,31,29.98,29.86,15,8,28,0.00
2013-4-3,46.7,38.8,32.4,27.2,25.2,23.9,71,59,41,30.03,29.95,13,8,25,0.00
2013-4-4,42.8,38.2,34.4,30.8,28.0,25.2,75,67,60,29.85,29.84,13,7,22,0.00
2013-4-5,45.8,40.3,36.4,32.3,30.5,29.3,79,68,54,30.00,29.83,13,8,22,0.00
2013-4-6,50.1,41.8,36.7,34.2,31.5,27.8,85,68,44,30.24,30.00,12,7,21,0.00
2013-4-7,52.5,40.0,30.4,37.9,30.9,27.0,97,72,41,30.25,29.96,8,2,13,0.00
2013-4-8,53.2,44.1,35.2,32.7,29.3,26.4,75,57,38,29.96,29.59,10,4,19,0.00
2013-4-9,50.5,44.4,37.1,45.2,39.1,28.6,92,82,52,29.59,29.44,10,2,18,0.02
2013-4-10,47.7,43.4,39.1,44.8,40.6,36.0,97,90,80,29.73,29.48,8,2,18,0.00
2013-4-11,48.8,44.8,40.3,48.0,43.4,37.8,98,95,90,29.64,29.38,16,5,30,0.19
2013-4-12,55.9,46.5,40.5,51.1,44.6,39.5,98,93,77,29.64,29.46,15,6,28,0.30
2013-4-13,59.8,49.4,42.4,49.9,45.1,41.2,97,86,53,30.03,29.64,11,5,23,0.08
2013-4-14,73.1,61.1,51.3,56.1,52.9,49.9,95,76,52,30.09,29.96,15,7,26,0.02
2013-4-15,63.1,56.5,49.4,53.2,50.2,45.4,93,80,65,30.12,29.96,9,2,19,0.02
2013-4-16,61.7,53.3,46.7,52.9,48.7,44.6,95,85,63,30.11,30.00,12,5,26,0.00
2013-4-17,69.6,59.5,49.3,55.6,51.3,47.6,97,76,51,30.14,29.82,13,4,25,0.00
2013-4-18,63.4,55.2,49.3,52.6,44.9,40.0,83,69,51,30.03,29.78,22,12,44,0.00
2013-4-19,56.9,48.4,42.9,46.5,42.6,39.3,88,81,64,30.43,30.03,11,7,23,0.00
2013-4-20,55.2,46.7,38.6,39.3,37.2,34.3,91,71,50,30.50,30.34,16,7,27,0.00
2013-4-21,59.1,47.9,38.0,41.9,37.0,33.5,88,68,45,30.35,30.03,7,2,14,0.00
2013-4-22,60.0,48.7,38.8,45.8,41.0,34.3,92,76,51,30.05,29.98,11,4,21,0.00
2013-4-23,60.5,52.6,48.4,52.0,47.9,41.8,98,85,65,30.22,29.98,9,5,21,0.06
2013-4-24,66.3,54.5,46.1,54.4,48.9,44.3,96,82,63,30.25,30.21,10,4,23,0.00
2013-4-25,72.8,59.8,50.1,56.8,51.9,47.5,93,77,53,30.25,29.99,9,2,18,0.00
2013-4-26,57.7,48.6,42.6,50.6,45.5,39.9,95,89,77,29.99,29.84,13,6,23,0.17
2013-4-27,53.8,46.5,40.6,40.3,39.0,36.6,93,77,54,30.01,29.83,12,6,22,0.00
2013-4-28,56.7,47.1,38.3,40.6,37.6,35.4,92,71,45,30.06,29.93,7,2,17,0.00
2013-4-29,55.7,48.4,42.9,45.3,39.0,33.4,90,71,49,30.13,29.87,11,6,26,0.09
2013-4-30,59.9,50.5,43.9,44.7,41.9,38.0,91,74,51,30.27,30.12,12,5,19,0.00
2013-5-1,66.5,52.9,40.4,44.6,40.7,35.9,85,66,42,30.27,30.11,11,7,22,0.00
2013-5-2,64.0,53.8,47.6,49.5,43.3,37.1,81,68,57,30.16,30.08,10,6,17,0.00
2013-5-3,70.3,58.4,47.3,51.8,47.0,42.4,84,67,48,30.10,30.02,9,3,14,0.00
2013-5-4,62.8,54.7,47.2,48.7,45.8,41.6,90,73,53,30.13,29.99,13,5,28,0.00
2013-5-5,71.1,57.5,46.7,51.1,47.3,44.5,94,72,44,30.20,30.12,7,2,14,0.00
2013-5-6,73.5,60.6,48.0,52.0,48.5,44.6,91,67,44,30.20,30.05,9,3,15,0.00
2013-5-7,79.3,65.3,52.7,59.8,54.4,48.3,88,70,39,30.06,29.89,9,4,20,0.02
2013-5-8,70.4,61.1,55.9,59.3,56.1,53.4,94,84,58,29.89,29.74,14,3,28,0.25
2013-5-9,62.6,56.2,50.7,53.6,46.8,40.9,93,73,45,29.91,29.81,10,5,24,0.01
2013-5-10,61.8,55.5,50.9,50.2,47.1,42.7,91,74,60,29.97,29.77,16,9,31,0.02
2013-5-11,57.7,52.3,48.6,51.2,47.3,44.0,93,83,62,29.97,29.80,14,7,29,0.35
2013-5-12,55.0,49.6,44.7,48.2,44.5,42.1,94,83,65,29.99,29.80,11,5,23,0.13
2013-5-13,56.8,52.5,46.6,51.8,48.2,43.8,98,86,64,29.95,29.79,14,8,28,0.09
2013-5-14,54.4,49.1,45.0,48.5,45.7,42.6,94,88,71,29.80,29.54,11,4,23,0.28
2013-5-15,61.9,53.7,47.6,49.7,46.8,42.4,95,79,50,29.60,29.40,14,6,27,0.04
2013-5-16,51.8,48.6,45.5,50.4,46.5,42.6,98,93,83,29.60,29.45,12,5,22,0.40
2013-5-17,50.6,48.1,47.0,48.7,47.1,46.2,97,96,92,29.69,29.49,10,5,17,0.42
2013-5-18,56.0,50.6,47.0,49.2,47.2,45.3,98,89,74,29.81,29.69,6,2,14,0.00
2013-5-19,66.7,54.6,44.9,53.9,48.6,43.2,96,81,62,29.84,29.78,10,5,20,0.00
2013-5-20,53.7,52.3,51.0,52.6,50.7,47.8,97,94,83,29.80,29.72,10,1,16,0.28
2013-5-21,52.1,50.2,48.5,51.3,49.4,47.2,98,97,95,29.90,29.77,14,6,25,0.38
2013-5-22,56.0,50.6,46.8,47.4,45.5,42.3,95,83,71,30.00,29.90,16,9,28,0.01
2013-5-23,53.9,47.2,42.6,46.6,41.4,37.3,95,81,59,29.92,29.77,13,5,22,0.09
2013-5-24,50.5,45.7,42.2,47.2,42.1,39.2,95,87,81,29.95,29.76,11,4,22,0.14
2013-5-25,58.4,50.0,42.9,47.8,44.3,40.1,95,81,65,30.03,29.94,14,8,23,0.05
2013-5-26,58.2,51.0,46.7,47.5,46.0,44.7,96,84,61,30.00,29.89,15,9,26,0.20
2013-5-27,69.2,57.1,46.5,52.2,45.0,35.2,95,68,32,29.89,29.75,8,2,20,0.00
2013-5-28,77.7,61.1,48.7,53.8,48.3,39.8,88,66,36,29.75,29.50,8,3,20,0.00
2013-5-29,54.9,52.0,50.3,52.5,49.9,48.0,96,93,83,29.61,29.53,9,4,20,0.05
2013-5-30,64.0,56.6,52.2,54.8,52.4,50.7,97,87,65,29.85,29.61,6,2,12,0.04
2013-5-31,71.5,59.1,51.8,58.8,53.2,49.9,97,82,57,29.99,29.85,15,9,25,0.00
2013-6-1,61.3,53.3,49.4,51.2,48.7,45.8,95,85,69,30.22,29.98,14,10,24,0.00
2013-6-2,67.7,56.7,47.3,52.0,47.4,44.7,93,73,48,30.38,30.22,11,7,18,0.00
2013-6-3,61.6,54.4,47.4,50.0,46.8,44.4,90,76,61,30.43,30.35,11,6,20,0.00
2013-6-4,74.2,60.3,48.5,56.9,50.7,44.5,87,72,54,30.37,30.14,10,6,18,0.00
2013-6-5,80.0,64.9,51.7,56.5,52.4,48.0,91,67,35,30.15,30.06,9,5,16,0.00
2013-6-6,84.6,67.6,53.9,59.9,55.2,50.0,88,67,40,30.13,30.08,9,5,16,0.00
2013-6-7,84.5,68.9,55.5,60.7,55.1,52.6,92,66,35,30.16,30.10,11,5,17,0.00
2013-6-8,73.5,62.2,52.7,54.9,52.0,49.4,90,71,51,30.16,29.99,12,9,21,0.00
2013-6-9,67.7,57.8,52.9,52.2,49.6,46.8,86,75,56,30.00,29.87,12,7,21,0.00
2013-6-10,57.0,53.3,50.9,47.5,46.6,45.9,84,78,69,29.95,29.91,7,4,17,0.00
2013-6-27,58.1,56.3,55.1,50.0,49.3,48.4,82,77,71,30.18,30.13,5,3,13,0.02
2013-6-28,61.2,57.7,55.1,58.0,54.3,49.9,97,89,79,30.13,29.97,9,3,19,0.22
2013-6-29,69.9,61.5,55.5,59.2,54.0,48.3,98,78,54,30.25,29.94,11,6,23,0.12
2013-6-30,73.7,63.3,52.3,62.8,56.2,47.5,88,78,63,30.25,30.05,10,4,21,0.00
2013-7-1,66.5,62.1,58.7,59.2,55.8,53.2,92,80,64,30.05,29.99,9,4,22,0.00
2013-7-2,72.3,63.4,54.7,60.9,55.8,52.8,95,77,58,30.00,29.75,8,2,16,0.31
2013-7-3,63.5,61.2,59.0,61.0,59.6,57.9,98,95,88,29.95,29.67,7,3,16,0.43
2013-7-4,71.1,64.0,59.9,61.8,60.0,58.3,97,87,69,30.23,29.95,11,4,21,0.00
2013-7-5,79.6,67.1,60.3,64.1,59.0,55.9,94,78,50,30.42,30.23,9,3,14,0.00
2013-7-6,86.8,70.9,58.1,65.9,60.4,55.8,93,72,42,30.42,30.35,5,2,11,0.00
2013-7-7,87.6,73.8,59.9,63.5,59.0,53.2,90,64,33,30.45,30.40,9,4,17,0.00
2013-7-8,86.1,72.0,60.0,65.0,60.6,56.8,90,70,46,30.47,30.38,11,6,20,0.00
2013-7-9,85.5,71.5,58.2,59.7,54.4,47.1,84,58,29,30.39,30.22,8,5,15,0.00
2013-7-10,75.2,66.1,59.8,61.7,57.2,50.3,91,74,54,30.23,30.19,12,7,23,0.00
2013-7-11,71.8,63.4,58.7,54.3,51.8,50.1,77,67,52,30.23,30.19,10,6,20,0.00
2013-7-12,71.7,62.0,53.4,58.8,54.4,49.6,89,77,63,30.23,30.20,9,4,15,0.00
2013-7-13,77.0,66.4,56.8,59.8,57.1,54.9,95,74,53,30.24,30.20,8,3,13,0.00
2013-7-14,81.3,68.3,56.9,63.7,59.5,54.6,94,75,53,30.26,30.18,5,1,9,0.00
2013-7-15,85.5,72.7,63.1,63.5,59.9,56.4,89,67,39,30.21,30.16,7,2,17,0.00
2013-7-16,83.0,71.5,60.4,61.5,59.0,56.9,93,67,44,30.22,30.18,8,1,11,0.00
2013-7-17,85.9,73.9,63.9,65.1,60.8,57.1,86,66,44,30.24,30.20,6,2,12,0.00
2013-7-18,89.9,76.2,64.8,67.3,63.8,60.3,93,69,39,30.26,30.21,11,5,17,0.00
2013-7-19,86.6,73.9,61.7,65.2,60.1,55.4,84,64,43,30.26,30.20,12,6,21,0.00
2013-7-20,77.3,69.1,64.5,62.7,60.9,58.0,88,76,58,30.23,30.12,8,4,13,0.00
2013-7-21,96.2,77.3,61.7,68.1,63.3,58.9,93,67,35,30.15,30.02,6,2,10,0.00
2013-7-22,97.4,80.9,66.9,68.5,65.5,62.6,87,63,36,30.04,29.94,8,1,13,0.00
2013-7-23,95.1,80.3,68.4,69.3,65.0,58.5,92,63,34,29.96,29.86,6,1,12,0.01
2013-7-24,78.9,72.5,66.3,65.2,62.5,57.9,89,72,51,29.97,29.87,9,3,22,0.00
2013-7-25,84.7,71.9,61.8,68.2,62.2,58.5,90,73,54,29.97,29.91,8,1,17,0.01
2013-7-26,80.5,72.5,67.6,71.0,67.0,63.4,96,83,68,29.95,29.85,7,1,15,0.20
2013-7-27,76.5,71.3,65.9,70.1,67.4,64.4,98,88,73,29.85,29.64,17,1,29,0.73
2013-7-28,75.8,69.5,64.1,68.4,62.5,60.2,97,79,61,29.88,29.61,11,5,25,0.23
2013-7-29,74.9,68.8,64.8,62.9,61.5,59.9,91,78,63,29.98,29.86,11,4,21,0.01
2013-7-30,69.3,65.0,61.3,63.7,60.2,57.6,97,85,72,30.01,29.86,13,7,25,0.09
2013-7-31,73.6,68.0,64.6,66.2,63.5,60.9,94,86,68,30.04,29.90,11,5,25,0.01
2013-8-1,90.2,76.8,64.7,69.7,65.9,62.2,93,72,44,30.00,29.83,7,2,17,0.00
2013-8-2,95.0,80.3,69.5,73.5,68.3,63.6,85,68,48,29.83,29.71,6,2,15,0.00
2013-8-3,74.4,70.2,65.3,65.6,61.0,57.9,88,74,58,30.13,29.82,12,5,25,0.00
2013-8-4,80.8,70.4,59.5,61.8,58.4,53.2,91,68,44,30.15,30.08,8,2,14,0.00
2013-8-5,85.8,72.6,61.3,64.5,60.2,56.8,91,67,45,30.10,29.78,11,2,27,0.35
2013-8-6,75.2,68.9,63.5,62.6,60.7,58.7,92,76,60,30.00,29.85,9,4,21,0.00
2013-8-7,65.6,62.2,59.9,60.5,58.9,56.1,95,89,81,29.97,29.84,11,5,20,0.17
2013-8-8,74.9,66.2,58.9,59.9,57.1,55.0,91,74,53,30.14,29.94,10,5,15,0.00
2013-8-9,74.4,65.6,57.3,62.5,58.1,54.8,94,78,57,30.13,30.06,8,3,17,0.00
2013-8-10,67.7,64.6,62.1,62.6,54.5,45.1,93,71,45,30.16,30.07,7,3,21,0.00
2013-8-11,72.8,64.7,58.1,61.8,57.7,52.8,93,78,60,30.14,29.97,11,4,25,0.02
2013-8-12,70.2,64.8,59.9,60.8,56.0,49.4,95,74,49,29.98,29.94,8,2,20,0.00
2013-8-13,68.4,62.9,58.7,55.0,53.5,51.4,83,72,59,30.17,29.96,10,4,24,0.00
2013-8-14,73.0,63.4,55.6,60.6,55.7,52.3,98,78,53,30.20,30.15,6,1,15,0.25
2013-8-15,73.0,63.3,56.1,64.4,58.8,53.2,96,86,66,30.18,30.06,8,3,17,0.03
2013-8-16,80.3,67.5,58.7,63.2,59.6,53.6,95,78,50,30.06,29.96,10,2,21,0.02
2013-8-17,75.4,68.1,64.0,63.7,61.9,59.1,93,81,61,29.99,29.84,10,4,21,0.01
2013-8-18,73.6,67.2,62.5,64.3,60.8,58.4,97,81,62,29.88,29.76,11,5,24,0.16
2013-8-19,71.2,63.7,59.6,63.1,57.6,53.6,97,82,57,30.27,29.86,11,3,20,0.15
2013-8-20,75.1,65.3,58.0,60.0,57.0,53.8,92,76,49,30.36,30.27,5,1,13,0.00
2013-8-21,76.9,66.5,56.0,60.8,56.6,53.3,91,73,48,30.32,30.16,7,1,13,0.00
2013-8-22,70.7,64.6,58.3,65.2,60.9,55.8,94,88,82,30.16,30.07,3,0,8,0.03
2013-8-23,81.1,70.9,62.0,64.9,61.6,59.8,96,75,49,30.09,29.91,6,1,11,0.00
2013-8-24,69.6,65.9,62.3,64.3,61.0,57.4,95,84,77,29.91,29.79,6,1,12,0.04
2013-8-25,72.8,65.2,58.4,64.8,61.5,57.3,97,88,73,29.96,29.80,5,1,12,0.00
2013-8-26,78.8,67.9,58.6,62.4,55.6,49.7,93,67,38,30.04,29.96,9,4,20,0.00
2013-8-27,79.2,68.6,57.7,57.1,53.8,50.8,80,61,39,30.03,29.97,8,3,14,0.00
2013-8-28,76.0,66.7,59.2,61.9,58.5,56.5,94,76,53,30.17,30.03,8,3,16,0.00
2013-8-29,76.1,66.0,56.4,62.8,57.1,52.2,96,75,45,30.17,30.13,7,1,18,0.00
2013-8-30,73.7,65.0,58.3,64.6,60.0,56.6,96,85,62,30.13,30.06,8,3,18,0.00
2013-8-31,71.1,64.8,57.9,62.6,57.5,47.9,94,78,56,30.30,30.05,12,6,22,0.02
2013-9-1,64.7,59.7,52.4,55.4,50.5,48.0,86,72,57,30.34,30.26,8,3,22,0.00
2013-9-2,68.6,63.7,58.3,60.4,57.5,52.5,92,81,73,30.30,30.20,10,4,23,0.00
2013-9-3,79.0,67.9,59.0,65.3,61.9,57.6,98,83,60,30.33,30.28,6,1,11,0.00
2013-9-4,81.6,70.7,59.9,65.7,62.7,57.9,96,77,58,30.28,30.04,5,1,12,0.00
2013-9-5,88.9,74.9,61.5,65.9,61.9,57.7,93,68,36,30.05,29.76,7,2,14,0.00
2013-9-6,77.5,68.6,63.9,65.9,62.2,59.1,92,80,56,29.88,29.71,9,1,17,0.12
2013-9-7,70.0,64.4,61.3,61.2,55.7,48.5,92,75,49,30.07,29.88,8,2,16,0.00
2013-9-8,68.0,61.3,56.1,58.1,55.4,52.5,95,82,59,30.09,30.03,5,1,15,0.16
2013-9-9,63.4,56.0,52.2,55.7,52.9,50.6,97,90,69,30.07,29.87,9,2,20,0.72
2013-9-10,61.7,55.4,51.6,56.3,53.4,50.4,97,93,76,29.93,29.78,13,5,32,1.12
2013-9-11,67.2,60.2,54.5,59.4,56.4,53.4,97,88,72,30.00,29.75,17,8,27,0.13
2013-9-12,65.9,60.0,56.1,60.6,56.4,53.6,97,88,72,30.08,29.98,8,3,16,0.10
2013-9-13,60.8,58.2,54.3,59.8,56.3,53.2,98,93,81,30.09,29.95,8,2,16,0.09
2013-9-14,63.7,60.6,56.2,61.3,57.8,51.7,98,91,73,29.96,29.75,16,7,25,0.20
2013-9-15,64.0,56.7,51.7,53.6,50.4,44.6,94,81,54,29.96,29.53,15,5,36,0.10
2013-9-16,60.0,55.0,49.7,55.0,47.8,43.7,96,78,56,29.55,29.50,14,6,31,0.16
2013-9-17,55.1,51.1,49.4,50.4,48.4,46.5,97,91,76,29.59,29.33,12,4,23,0.46
2013-9-18,58.5,53.1,50.6,55.4,51.0,47.3,98,93,70,29.73,29.33,10,2,27,0.38
2013-9-19,58.9,54.9,49.4,55.4,50.9,47.2,97,87,73,29.87,29.73,12,5,24,0.06
2013-9-20,61.6,58.1,54.2,55.6,53.7,50.0,97,85,72,30.18,29.77,9,3,23,0.00
2013-9-21,64.7,58.5,51.9,56.2,53.7,50.3,96,85,69,30.30,30.18,7,2,14,0.00
2013-9-22,65.9,61.6,59.4,62.9,59.9,56.4,99,94,88,30.34,30.28,6,2,13,0.01
2013-9-23,70.0,62.9,57.4,62.6,59.7,55.4,98,90,72,30.33,30.14,7,1,13,0.00
2013-9-24,68.5,59.8,55.0,61.9,57.2,53.7,99,92,76,30.14,29.94,3,0,7,0.01
2013-9-25,68.3,61.0,54.7,59.9,56.9,53.0,96,87,71,29.95,29.81,4,0,10,0.00
2013-9-26,65.2,59.1,51.7,57.8,53.1,47.3,94,81,63,30.08,29.84,8,3,16,0.00
2013-9-27,63.3,53.5,45.1,53.5,48.4,43.2,94,83,69,30.08,29.98,6,2,13,0.00
2013-9-28,66.3,54.8,46.0,52.0,47.1,43.3,91,76,57,29.98,29.83,10,4,20,0.00
2013-9-29,65.7,56.0,48.5,51.3,47.4,44.4,86,74,57,29.84,29.74,10,6,22,0.00
2013-9-30,63.4,54.2,46.4,49.9,46.4,43.3,89,76,61,29.84,29.77,10,4,20,0.00
2013-10-1,63.8,51.9,43.7,50.7,45.1,40.6,89,78,61,29.95,29.84,8,4,19,0.00
2013-10-2,62.8,53.0,44.6,48.9,44.5,40.1,84,73,57,30.02,29.95,8,3,21,0.00
2013-10-3,64.6,55.8,47.3,52.9,46.5,41.8,83,72,56,30.02,29.87,7,3,19,0.00
2013-10-4,70.9,62.6,55.5,64.4,59.1,53.2,98,89,75,29.94,29.85,13,4,28,0.43
2013-10-5,66.8,61.2,56.9,61.8,57.7,55.2,98,89,71,30.20,29.93,9,2,14,0.00
2013-10-6,63.4,56.9,50.8,58.0,54.0,49.1,98,90,75,30.30,30.20,2,0,5,0.00
2013-10-7,65.8,55.2,46.3,57.7,51.8,45.2,98,89,71,30.31,30.25,5,1,11,0.01
2013-10-8,64.6,58.1,51.5,60.1,56.0,50.0,99,93,83,30.27,30.20,7,1,13,0.00
2013-10-9,60.6,58.0,51.2,58.3,53.8,47.3,97,86,68,30.21,29.82,15,4,30,0.05
2013-10-10,55.0,50.0,46.5,49.4,46.7,41.9,96,89,76,29.83,29.72,9,3,23,0.37
2013-10-11,48.7,47.0,44.8,47.6,46.0,43.8,98,96,94,30.02,29.78,7,2,14,0.43
2013-10-12,55.0,48.1,41.5,50.0,46.0,41.0,99,93,78,30.13,29.93,5,2,11,0.26
2013-10-13,49.2,47.7,46.1,48.4,46.9,44.7,98,97,95,29.93,29.71,16,10,37,2.56
2013-10-14,52.2,50.4,48.7,51.3,49.3,47.9,98,96,93,29.86,29.75,7,4,18,0.13
2013-10-15,55.3,50.9,47.9,52.2,49.7,47.1,98,96,85,29.80,29.67,9,3,21,0.21
2013-10-16,55.2,49.6,43.0,52.8,48.4,42.3,99,96,85,29.94,29.76,9,2,19,0.02
2013-10-17,60.7,56.4,51.4,55.9,53.5,50.3,98,90,77,29.99,29.77,12,6,26,0.03
2013-10-18,55.0,52.8,50.4,54.7,52.4,49.6,99,98,96,30.07,29.94,5,1,10,0.01
2013-10-19,61.1,55.0,49.2,57.7,53.4,48.1,98,94,84,29.94,29.72,8,3,18,0.31
2013-10-20,64.6,58.6,54.6,59.1,56.2,53.8,99,92,79,29.81,29.75,12,5,25,0.02
2013-10-21,63.3,58.5,54.1,59.4,56.1,52.8,97,92,86,29.86,29.79,11,5,21,0.01
2013-10-22,71.0,62.8,57.1,62.7,58.8,55.5,96,87,73,29.78,29.50,9,4,22,0.01
2013-10-23,65.3,61.0,55.3,59.2,57.0,53.1,94,87,74,29.81,29.47,15,7,33,0.00
2013-10-24,61.9,54.2,48.6,55.0,51.4,47.5,98,91,73,30.04,29.81,5,2,12,0.01
2013-10-25,64.9,57.7,51.0,61.0,55.5,49.8,96,92,86,29.96,29.75,9,3,18,0.02
2013-10-26,65.9,60.7,58.4,59.4,57.4,55.3,96,89,72,29.80,29.68,12,6,26,0.01
2013-10-27,61.0,58.0,55.2,57.4,53.6,51.5,94,85,78,29.67,29.44,18,12,40,0.23
2013-10-28,61.8,56.7,50.3,56.5,52.6,47.4,96,86,72,29.61,29.11,27,14,50,0.40
2013-10-29,56.1,50.8,47.1,49.8,47.6,45.7,96,89,75,29.97,29.61,15,8,34,0.35
2013-10-30,55.8,49.5,45.4,50.3,46.2,43.8,96,89,72,30.20,29.97,11,4,20,0.02
2013-10-31,56.2,51.4,46.1,50.5,47.3,43.9,92,86,77,30.20,30.00,13,8,28,0.00
2013-11-1,54.5,52.2,49.4,52.5,50.3,47.7,96,93,89,30.02,29.65,12,6,24,0.04
2013-11-2,55.4,51.6,48.3,53.1,50.3,47.1,98,95,86,29.65,29.43,13,4,25,0.27
2013-11-3,53.0,49.7,46.8,49.1,45.9,43.8,93,87,72,29.53,29.41,17,10,33,0.13
2013-11-4,54.0,48.4,45.9,52.3,46.1,40.6,98,92,73,29.41,28.94,17,8,32,1.04
2013-11-5,50.2,45.7,42.4,48.2,43.6,41.1,97,92,79,29.44,29.19,13,6,31,0.35
2013-11-6,57.1,51.4,48.3,55.3,48.6,42.8,98,90,80,29.56,29.36,14,6,30,0.18
2013-11-7,57.6,53.4,50.0,56.5,52.2,49.2,97,95,92,29.77,29.50,16,4,33,0.24
2013-11-8,52.8,48.5,43.8,49.9,47.3,43.0,99,96,88,29.80,29.54,8,1,16,0.13
2013-11-9,51.5,47.8,44.3,48.2,44.7,42.7,97,89,78,29.79,29.53,13,7,27,0.49
2013-11-10,49.2,44.6,41.4,44.7,41.9,39.9,97,90,82,30.22,29.58,12,3,19,0.08
2013-11-11,50.0,45.2,38.7,45.3,41.3,37.4,98,87,75,30.35,30.23,10,4,21,0.01
2013-11-12,49.4,46.7,44.6,48.9,44.9,40.8,98,94,80,30.39,30.18,12,6,23,0.06
2013-11-13,54.1,45.1,38.5,47.2,42.3,37.5,98,90,73,30.50,30.29,7,1,13,0.01
2013-11-14,49.3,45.8,44.0,47.1,43.9,41.6,97,93,87,30.29,30.00,11,6,21,0.28
2013-11-15,53.4,45.2,39.3,47.5,42.9,38.0,97,92,78,30.48,30.19,8,2,14,0.01
2013-11-16,44.0,41.6,38.8,43.5,41.0,37.8,98,98,96,30.48,30.33,6,2,11,0.01
2013-11-17,45.2,44.3,42.5,44.7,43.7,42.0,98,98,96,30.34,30.06,3,0,7,0.02
2013-11-18,44.9,43.3,41.7,42.7,40.9,38.9,96,91,86,30.05,29.72,10,3,21,0.00
2013-11-19,47.8,43.2,38.3,46.5,41.5,36.4,98,94,88,29.87,29.65,13,4,23,0.19
2013-11-20,42.2,38.7,35.4,38.6,36.3,34.4,96,91,78,29.87,29.34,14,5,27,0.24
2013-11-21,42.1,38.2,35.9,37.8,35.9,33.7,96,92,82,29.81,29.33,10,5,17,0.01
2013-11-22,43.7,40.5,36.1,40.4,37.6,33.3,93,89,85,30.04,29.81,14,7,21,0.00
2013-11-23,47.1,42.3,38.5,40.7,38.9,36.1,93,88,77,30.19,30.04,9,5,16,0.00
2013-11-24,47.9,44.7,41.3,45.6,40.9,37.6,96,87,74,30.41,30.18,13,5,21,0.01
2013-11-25,46.4,42.7,40.2,42.8,39.2,36.6,92,87,79,30.55,30.41,10,4,17,0.04
2013-11-26,46.9,42.7,38.9,44.1,40.5,37.0,96,92,83,30.59,30.52,7,1,12,0.02
2013-11-27,48.1,44.2,40.2,45.0,42.4,38.6,97,93,81,30.52,30.47,6,2,15,0.01
2013-11-28,50.0,47.6,45.2,49.4,46.5,43.0,98,96,89,30.50,30.46,6,1,11,0.02
2013-11-29,48.7,46.2,43.2,46.1,42.6,38.6,95,87,74,30.47,29.95,15,6,33,0.13
2013-11-30,50.7,44.8,41.6,46.5,42.7,39.2,96,92,80,30.36,29.92,11,4,24,0.15
2013-12-1,49.2,45.5,41.4,46.2,43.2,39.8,97,92,83,30.51,30.34,7,2,13,0.00
2013-12-2,48.3,43.0,36.8,43.0,39.4,35.0,94,87,74,30.56,30.44,6,2,12,0.00
2013-12-3,40.2,36.5,31.9,39.2,35.4,30.9,97,96,93,30.44,30.28,5,1,10,0.01
2013-12-4,47.6,43.0,38.6,46.5,40.7,36.9,96,92,81,30.38,30.22,13,4,21,0.04
2013-12-5,49.4,41.9,37.7,45.1,38.3,33.7,94,87,72,30.38,29.79,22,10,47,0.13
2013-12-6,43.2,41.0,38.6,36.7,33.9,29.2,88,76,57,30.29,30.00,16,10,40,0.10
2013-12-7,47.9,43.3,39.7,46.4,40.7,33.8,97,90,77,30.29,30.20,8,3,21,0.08
2013-12-8,49.3,46.4,44.1,47.3,44.7,42.5,97,94,88,30.25,30.19,14,7,28,0.02
2013-12-9,51.1,47.9,42.3,48.1,46.1,41.0,96,93,88,30.47,30.24,13,6,24,0.00
2013-12-10,46.5,39.2,34.5,40.9,36.9,32.7,96,92,78,30.52,30.47,6,2,12,0.01
2013-12-11,43.8,35.7,31.0,40.4,34.2,30.0,97,94,86,30.50,30.41,5,1,10,0.01
2013-12-12,40.4,35.1,32.7,37.1,33.8,32.1,99,95,87,30.41,30.26,8,4,16,0.01
2013-12-13,40.4,36.9,33.6,39.5,36.0,33.1,98,96,93,30.27,30.11,9,4,17,0.01
2013-12-14,48.1,43.5,39.3,44.9,41.6,37.6,98,93,85,30.31,30.12,13,5,26,0.12
2013-12-15,49.3,46.3,43.7,46.2,43.0,40.0,92,88,83,30.28,30.16,15,9,30,0.07
2013-12-16,53.7,49.4,46.8,45.7,44.1,42.2,90,82,72,30.17,30.08,13,9,28,0.00
2013-12-17,49.8,44.5,42.1,44.9,41.9,40.8,95,91,83,30.24,30.09,9,3,19,0.01
2013-12-18,47.8,45.8,42.6,44.5,42.9,40.6,95,89,85,30.08,29.57,12,8,24,0.01
2013-12-19,49.3,45.8,40.0,46.9,43.5,38.4,95,92,83,29.84,29.44,15,6,32,0.27
2013-12-20,47.3,42.7,39.6,43.7,40.5,38.4,96,92,84,30.26,29.84,13,6,24,0.03
2013-12-21,46.0,44.6,43.1,43.0,41.7,39.5,95,90,86,30.23,29.88,20,13,37,0.13
2013-12-22,50.7,46.5,44.3,46.9,43.9,41.9,94,91,86,29.91,29.78,18,11,36,0.10
2013-12-23,52.6,46.5,41.9,47.4,43.3,39.7,93,89,80,29.96,29.29,24,12,45,0.06
2013-12-24,52.6,50.3,45.8,49.1,46.2,43.3,95,86,77,29.29,29.03,28,16,51,0.28
2013-12-25,47.1,44.1,37.7,45.6,41.4,36.3,96,90,83,29.27,28.99,11,5,24,0.10
2013-12-26,45.8,41.4,37.3,43.6,39.6,36.2,97,93,86,29.57,29.25,8,3,17,0.02
2013-12-27,48.8,45.8,38.9,47.6,43.4,37.2,98,91,82,29.53,29.23,22,12,42,0.15
2013-12-28,47.8,44.8,40.6,45.0,43.1,39.0,96,94,89,29.66,29.32,9,5,20,0.24
2013-12-29,45.6,41.5,38.7,43.5,39.8,36.9,97,94,84,30.16,29.66,8,4,18,0.10
2013-12-30,46.2,42.1,37.8,42.6,39.5,36.3,94,90,83,30.17,29.92,18,10,34,0.03
2013-12-31,47.9,44.8,42.5,42.0,40.9,38.4,94,86,73,30.01,29.69,14,8,26,0.14
2014-1-1,49.1,45.0,41.6,46.9,42.5,39.7,95,91,84,29.73,29.32,14,10,31,0.17
2014-1-2,51.0,48.6,45.0,47.4,45.6,42.1,95,89,85,29.61,29.27,15,9,34,0.03